Time;durP1;ratioP1;P1;durP2;ratioP2;P2;SDS_P1;SDS_P2;PMS_P1;PMS_P2;Temp;Humidity;BMP_temperature;BMP_pressure;BME280_temperature;BME280_humidity;BME280_pressure;Samples;Min_cycle;Max_cycle;Signal;HPM_P1;HPM_P2
2023/04/17 00:00:37;;;;;;;;;;;;;;;19.39;71.28;100433.50;7396305;19;1544;-48
2023/04/17 00:03:05;;;;;;;;;;;;;;;19.43;70.96;100432.19;7395908;19;1549;-48
2023/04/17 00:05:34;;;;;;;;;;;;;;;19.42;70.93;100433.22;7395717;19;1229;-48
2023/04/17 00:08:02;;;;;;;;;;;;;;;19.39;71.16;100428.13;7395498;19;1261;-49
2023/04/17 00:10:30;;;;;;;;;;;;;;;19.37;71.23;100427.44;7393836;19;1847;-48
2023/04/17 00:12:59;;;;;;;;;;;;;;;19.35;71.28;100418.69;7396017;19;1586;-49
2023/04/17 00:15:30;;;;;;;;;;;;;;;19.22;71.83;100423.53;7395262;19;1171;-48
2023/04/17 00:17:58;;;;;;;;;;;;;;;19.17;72.34;100439.19;7395091;19;1167;-49
2023/04/17 00:20:26;;;;;;;;;;;;;;;19.22;71.98;100428.91;7394940;19;1494;-48
2023/04/17 00:22:54;;;;;;;;;;;;;;;19.33;71.62;100439.44;7395725;19;1550;-48
2023/04/17 00:25:23;;;;;;;;;;;;;;;19.37;72.05;100435.47;7395256;19;1564;-49
2023/04/17 00:27:51;;;;;;;;;;;;;;;19.38;71.88;100423.78;7393881;19;1135;-48
2023/04/17 00:30:20;;;;;;;;;;;;;;;19.36;71.76;100438.28;7394490;19;1865;-49
2023/04/17 00:32:51;;;;;;;;;;;;;;;19.34;71.84;100433.09;7394643;19;1229;-49
2023/04/17 00:35:19;;;;;;;;;;;;;;;19.36;71.44;100430.25;7395469;19;1470;-48
2023/04/17 00:37:47;;;;;;;;;;;;;;;19.35;71.73;100432.09;7395527;19;1110;-48
2023/04/17 00:40:16;;;;;;;;;;;;;;;19.31;71.56;100427.19;7395613;19;1007;-48
2023/04/17 00:42:44;;;;;;;;;;;;;;;19.37;71.30;100431.94;7394395;19;1757;-48
2023/04/17 00:45:12;;;;;;;;;;;;;;;19.37;71.30;100429.28;7393806;19;1620;-48
2023/04/17 00:47:41;;;;;;;;;;;;;;;19.37;71.39;100432.78;7394490;19;1427;-49
2023/04/17 00:50:12;;;;;;;;;;;;;;;19.37;71.34;100432.78;7395861;19;1850;-48
2023/04/17 00:52:41;;;;;;;;;;;;;;;19.31;71.43;100430.69;7402335;19;1539;-48
2023/04/17 00:55:10;;;;;;;;;;;;;;;19.32;71.50;100435.06;7402537;19;1557;-48
2023/04/17 00:57:38;;;;;;;;;;;;;;;19.27;71.67;100445.38;7401712;19;1657;-49
2023/04/17 01:00:08;;;;;;;;;;;;;;;19.25;71.39;100433.97;7402730;19;1542;-48
2023/04/17 01:02:36;;;;;;;;;;;;;;;19.31;71.52;100437.91;7401693;19;1217;-48
2023/04/17 01:05:05;;;;;;;;;;;;;;;19.33;71.17;100423.34;7402294;19;1565;-48
2023/04/17 01:07:36;;;;;;;;;;;;;;;19.31;71.40;100425.34;7398458;19;1281;-50
2023/04/17 01:10:04;;;;;;;;;;;;;;;19.28;71.71;100434.53;7399794;19;1849;-49
2023/04/17 01:12:33;;;;;;;;;;;;;;;19.30;71.28;100430.84;7400966;19;1355;-49
2023/04/17 01:15:01;;;;;;;;;;;;;;;19.28;71.81;100428.31;7401344;19;1443;-48
2023/04/17 01:17:30;;;;;;;;;;;;;;;19.26;71.47;100428.47;7400861;19;1498;-48
2023/04/17 01:19:58;;;;;;;;;;;;;;;19.28;71.17;100422.97;7401426;19;1289;-48
2023/04/17 01:22:27;;;;;;;;;;;;;;;19.25;71.41;100423.22;7400374;19;1281;-48
2023/04/17 01:24:58;;;;;;;;;;;;;;;19.24;71.35;100416.19;7398124;19;1502;-49
2023/04/17 01:27:26;;;;;;;;;;;;;;;19.27;71.02;100431.97;7398717;19;1509;-49
2023/04/17 01:29:54;;;;;;;;;;;;;;;19.28;71.12;100421.13;7400244;19;1864;-48
2023/04/17 01:32:23;;;;;;;;;;;;;;;19.28;71.50;100425.63;7401206;19;1935;-48
2023/04/17 01:34:51;;;;;;;;;;;;;;;19.23;71.54;100415.34;7401405;19;1839;-48
2023/04/17 01:37:19;;;;;;;;;;;;;;;19.18;71.70;100408.72;7400387;19;1968;-49
2023/04/17 01:39:47;;;;;;;;;;;;;;;19.21;71.46;100409.28;7400561;19;1466;-49
2023/04/17 01:42:18;;;;;;;;;;;;;;;19.23;71.18;100426.06;7399873;19;1588;-48
2023/04/17 01:44:47;;;;;;;;;;;;;;;18.97;72.60;100412.44;7399937;19;1440;-49
2023/04/17 01:47:15;;;;;;;;;;;;;;;19.61;70.78;100423.38;7400326;19;1528;-48
2023/04/17 01:49:43;;;;;;;;;;;;;;;20.10;69.07;100413.28;7399833;19;1866;-49
2023/04/17 01:52:11;;;;;;;;;;;;;;;20.32;68.45;100417.38;7400137;19;1568;-48
2023/04/17 01:54:40;;;;;;;;;;;;;;;20.16;69.00;100411.84;7399853;19;1250;-49
2023/04/17 01:57:08;;;;;;;;;;;;;;;20.14;69.02;100411.97;7399690;19;1588;-49
2023/04/17 01:59:39;;;;;;;;;;;;;;;20.27;68.96;100436.63;7399727;19;1525;-48
2023/04/17 02:02:07;;;;;;;;;;;;;;;20.39;68.27;100429.19;7398385;19;1390;-49
2023/04/17 02:04:35;;;;;;;;;;;;;;;20.52;68.11;100423.44;7399744;19;1692;-48
2023/04/17 02:07:03;;;;;;;;;;;;;;;20.54;68.09;100426.81;7401080;19;1044;-49
2023/04/17 02:09:32;;;;;;;;;;;;;;;20.58;67.83;100422.81;7398648;19;1945;-48
2023/04/17 02:12:01;;;;;;;;;;;;;;;20.66;67.65;100425.59;7398818;19;1483;-48
2023/04/17 02:14:29;;;;;;;;;;;;;;;20.58;67.67;100428.19;7398640;19;1449;-49
2023/04/17 02:17:00;;;;;;;;;;;;;;;20.63;67.68;100425.91;7399698;19;1558;-49
2023/04/17 02:19:28;;;;;;;;;;;;;;;20.45;68.23;100412.47;7399468;19;1466;-48
2023/04/17 02:21:56;;;;;;;;;;;;;;;20.34;68.85;100420.75;7399634;19;1550;-48
2023/04/17 02:24:25;;;;;;;;;;;;;;;20.33;68.82;100415.50;7399651;19;1069;-48
2023/04/17 02:26:53;;;;;;;;;;;;;;;20.34;68.53;100420.75;7397564;19;1497;-48
2023/04/17 02:29:21;;;;;;;;;;;;;;;20.49;68.26;100402.22;7398713;19;1210;-48
2023/04/17 02:31:50;;;;;;;;;;;;;;;20.65;67.55;100399.75;7393631;19;1856;-48
2023/04/17 02:34:20;;;;;;;;;;;;;;;20.82;67.42;100398.00;7398327;19;1669;-48
2023/04/17 02:36:49;;;;;;;;;;;;;;;20.74;67.24;100391.75;7398424;19;1470;-48
2023/04/17 02:39:18;;;;;;;;;;;;;;;20.81;67.32;100396.34;7398511;19;1585;-48
2023/04/17 02:41:46;;;;;;;;;;;;;;;20.80;67.26;100399.19;7398870;19;1533;-48
2023/04/17 02:44:14;;;;;;;;;;;;;;;20.87;66.97;100402.94;7398059;19;1569;-48
2023/04/17 02:46:42;;;;;;;;;;;;;;;20.80;66.92;100400.00;7397812;19;1418;-48
2023/04/17 02:49:11;;;;;;;;;;;;;;;20.70;67.51;100390.38;7398261;19;1475;-48
2023/04/17 02:51:42;;;;;;;;;;;;;;;20.50;68.07;100390.50;7396558;19;1842;-48
2023/04/17 02:54:10;;;;;;;;;;;;;;;20.57;68.23;100406.84;7398219;19;1559;-49
2023/04/17 02:56:39;;;;;;;;;;;;;;;20.71;67.91;100400.09;7397765;19;1611;-48
2023/04/17 02:59:07;;;;;;;;;;;;;;;20.82;67.17;100413.31;7398532;19;1412;-48
2023/04/17 03:01:36;;;;;;;;;;;;;;;20.92;66.96;100413.22;7399305;19;1190;-49
2023/04/17 03:04:04;;;;;;;;;;;;;;;21.07;66.43;100417.03;7397464;19;1503;-48
2023/04/17 03:06:32;;;;;;;;;;;;;;;21.02;66.62;100406.72;7397472;19;1363;-49
2023/04/17 03:09:03;;;;;;;;;;;;;;;20.97;66.91;100414.44;7397552;19;1487;-49
2023/04/17 03:11:32;;;;;;;;;;;;;;;20.94;66.78;100405.84;7395771;19;1859;-48
2023/04/17 03:14:00;;;;;;;;;;;;;;;20.99;66.54;100400.81;7397597;19;1281;-48
2023/04/17 03:16:28;;;;;;;;;;;;;;;21.00;66.71;100410.56;7396929;19;1416;-48
2023/04/17 03:18:56;;;;;;;;;;;;;;;20.95;66.81;100399.44;7397706;19;1244;-49
2023/04/17 03:21:25;;;;;;;;;;;;;;;21.02;66.48;100405.88;7396945;19;1854;-49
2023/04/17 03:23:53;;;;;;;;;;;;;;;21.02;66.47;100406.72;7397287;19;1605;-48
2023/04/17 03:26:24;;;;;;;;;;;;;;;21.01;66.50;100420.34;7396010;19;1558;-48
2023/04/17 03:28:53;;;;;;;;;;;;;;;21.04;66.46;100434.28;7397110;19;1558;-48
2023/04/17 03:31:22;;;;;;;;;;;;;;;21.03;66.42;100429.94;7394895;19;1858;-48
2023/04/17 03:33:50;;;;;;;;;;;;;;;20.95;66.76;100408.38;7397709;19;1044;-49
2023/04/17 03:36:19;;;;;;;;;;;;;;;21.04;66.32;100418.16;7397563;19;1121;-48
2023/04/17 03:38:47;;;;;;;;;;;;;;;21.07;66.52;100400.88;7395650;19;1534;-49
2023/04/17 03:41:16;;;;;;;;;;;;;;;21.06;66.68;100416.16;7396849;19;1553;-48
2023/04/17 03:43:47;;;;;;;;;;;;;;;21.09;66.76;100417.72;7392539;19;1451;-48
2023/04/17 03:46:16;;;;;;;;;;;;;;;21.03;67.50;100388.78;7396454;19;1433;-48
2023/04/17 03:48:44;;;;;;;;;;;;;;;21.02;68.04;100397.81;7394463;19;1442;-48
2023/04/17 03:51:12;;;;;;;;;;;;;;;21.00;67.88;100392.59;7393323;19;1849;-48
2023/04/17 03:53:40;;;;;;;;;;;;;;;21.00;68.45;100394.44;7395870;19;1288;-48
2023/04/17 03:56:09;;;;;;;;;;;;;;;21.00;68.45;100394.44;7393600;19;2146;-48
2023/04/17 03:58:37;;;;;;;;;;;;;;;21.03;68.61;100394.16;7394551;19;1479;-48
2023/04/17 04:01:09;;;;;;;;;;;;;;;20.55;70.47;100390.91;7395516;19;1645;-48
2023/04/17 04:03:37;;;;;;;;;;;;;;;20.44;70.11;100405.38;7395323;19;1509;-48
2023/04/17 04:06:06;;;;;;;;;;;;;;;20.39;70.07;100402.34;7396135;19;1542;-48
2023/04/17 04:08:34;;;;;;;;;;;;;;;20.24;70.22;100420.81;7393615;19;1541;-48
2023/04/17 04:11:03;;;;;;;;;;;;;;;20.06;70.59;100423.47;7394102;19;1849;-48
2023/04/17 04:13:32;;;;;;;;;;;;;;;19.92;71.25;100425.84;7394856;19;1272;-48
2023/04/17 04:16:00;;;;;;;;;;;;;;;19.85;71.20;100441.66;7395550;19;1734;-48
2023/04/17 04:18:31;;;;;;;;;;;;;;;19.72;71.57;100447.38;7395467;19;1141;-49
2023/04/17 04:21:00;;;;;;;;;;;;;;;19.76;71.29;100439.91;7395027;19;1491;-49
2023/04/17 04:23:29;;;;;;;;;;;;;;;19.88;70.99;100440.53;7394845;19;1382;-49
2023/04/17 04:26:00;;;;;;;;;;;;;;;19.93;71.12;100438.25;7391412;19;1380;-49
2023/04/17 04:28:29;;;;;;;;;;;;;;;20.52;69.33;100427.97;7391835;19;1482;-49
2023/04/17 04:30:57;;;;;;;;;;;;;;;21.14;67.60;100430.66;7393018;19;1854;-48
2023/04/17 04:33:26;;;;;;;;;;;;;;;21.19;66.82;100431.06;7391963;19;1500;-48
2023/04/17 04:36:00;;;;;;;;;;;;;;;20.77;68.09;100431.72;7392428;19;1443;-48
2023/04/17 04:38:31;;;;;;;;;;;;;;;20.56;68.77;100451.66;7392050;19;1496;-48
2023/04/17 04:41:04;;;;;;;;;;;;;;;20.68;68.03;100446.09;7393643;19;1245;-48
2023/04/17 04:43:33;;;;;;;;;;;;;;;20.66;67.81;100436.34;7393674;19;1398;-48
2023/04/17 04:46:01;;;;;;;;;;;;;;;20.72;67.57;100428.66;7391691;19;1324;-48
2023/04/17 04:48:29;;;;;;;;;;;;;;;21.00;66.75;100422.16;7392613;19;1152;-49
2023/04/17 04:51:00;;;;;;;;;;;;;;;21.10;66.05;100448.13;7392050;19;1865;-48
2023/04/17 04:53:29;;;;;;;;;;;;;;;20.99;66.65;100430.38;7394962;19;1921;-49
2023/04/17 04:55:57;;;;;;;;;;;;;;;20.97;67.06;100432.38;7393685;19;1240;-49
2023/04/17 04:58:28;;;;;;;;;;;;;;;20.78;67.15;100428.88;7394051;19;1538;-49
2023/04/17 05:00:56;;;;;;;;;;;;;;;20.84;67.39;100452.44;7394630;19;1541;-48
2023/04/17 05:03:25;;;;;;;;;;;;;;;20.95;66.71;100451.38;7389808;19;1327;-48
2023/04/17 05:05:53;;;;;;;;;;;;;;;21.12;66.34;100456.88;7392357;19;1412;-48
2023/04/17 05:08:24;;;;;;;;;;;;;;;21.08;66.36;100472.47;7393872;19;1342;-48
2023/04/17 05:10:52;;;;;;;;;;;;;;;21.03;66.46;100470.25;7390733;19;1866;-48
2023/04/17 05:13:20;;;;;;;;;;;;;;;21.04;66.31;100469.25;7392689;19;1459;-48
2023/04/17 05:15:48;;;;;;;;;;;;;;;21.08;66.18;100472.47;7392419;19;1185;-48
2023/04/17 05:18:17;;;;;;;;;;;;;;;21.11;66.27;100439.03;7392854;19;1242;-49
2023/04/17 05:20:45;;;;;;;;;;;;;;;21.12;66.38;100468.47;7388787;19;1470;-47
2023/04/17 05:23:13;;;;;;;;;;;;;;;21.13;66.54;100463.91;7391965;19;1424;-48
2023/04/17 05:25:44;;;;;;;;;;;;;;;21.13;66.74;100491.69;7391738;19;1553;-48
2023/04/17 05:28:12;;;;;;;;;;;;;;;21.13;66.66;100491.69;7388587;19;1201;-47
2023/04/17 05:30:41;;;;;;;;;;;;;;;21.18;66.59;100480.44;7390247;19;1875;-49
2023/04/17 05:33:09;;;;;;;;;;;;;;;21.17;66.76;100476.03;7391705;19;1269;-48
2023/04/17 05:35:37;;;;;;;;;;;;;;;21.21;66.52;100482.81;7391869;19;1605;-49
2023/04/17 05:38:06;;;;;;;;;;;;;;;21.24;66.49;100504.00;7398143;19;1146;-48
2023/04/17 05:40:35;;;;;;;;;;;;;;;21.25;66.55;100484.19;7398816;19;1522;-49
2023/04/17 05:43:10;;;;;;;;;;;;;;;21.29;66.25;100495.47;7399555;19;1060;-48
2023/04/17 05:45:40;;;;;;;;;;;;;;;21.39;65.96;100491.69;7399761;19;1315;-49
2023/04/17 05:48:08;;;;;;;;;;;;;;;21.36;65.95;100499.22;7398369;19;1887;-50
2023/04/17 05:50:37;;;;;;;;;;;;;;;21.25;66.85;100505.72;7398241;19;1856;-48
2023/04/17 05:53:05;;;;;;;;;;;;;;;21.26;67.28;100496.63;7397519;19;1549;-49
2023/04/17 05:55:33;;;;;;;;;;;;;;;21.22;67.32;100508.69;7398301;19;1392;-49
2023/04/17 05:58:02;;;;;;;;;;;;;;;21.19;67.53;100501.81;7396087;19;1540;-49
2023/04/17 06:00:32;;;;;;;;;;;;;;;21.29;67.52;100499.03;7396823;19;1485;-49
2023/04/17 06:03:01;;;;;;;;;;;;;;;21.37;67.39;100495.56;7396191;19;1170;-48
2023/04/17 06:05:30;;;;;;;;;;;;;;;21.49;67.06;100498.81;7397783;19;1478;-49
2023/04/17 06:07:58;;;;;;;;;;;;;;;21.49;67.26;100507.75;7397512;19;1460;-49
2023/04/17 06:10:26;;;;;;;;;;;;;;;21.53;67.01;100513.69;7397479;19;1320;-48
2023/04/17 06:12:55;;;;;;;;;;;;;;;21.42;67.45;100512.88;7393528;19;1857;-48
2023/04/17 06:15:23;;;;;;;;;;;;;;;21.35;67.48;100511.00;7396813;19;1858;-48
2023/04/17 06:17:54;;;;;;;;;;;;;;;21.31;67.59;100521.22;7396065;19;1477;-48
2023/04/17 06:20:22;;;;;;;;;;;;;;;21.38;67.34;100541.09;7391238;19;1738;-48
2023/04/17 06:22:51;;;;;;;;;;;;;;;21.31;67.37;100531.97;7395238;19;1330;-48
2023/04/17 06:25:19;;;;;;;;;;;;;;;21.30;67.43;100532.97;7396085;19;1506;-47
2023/04/17 06:27:48;;;;;;;;;;;;;;;21.31;67.36;100534.66;7394060;19;2956;-48
2023/04/17 06:30:16;;;;;;;;;;;;;;;21.36;67.38;100540.41;7397569;19;1159;-48
2023/04/17 06:32:44;;;;;;;;;;;;;;;21.40;67.27;100540.94;7392304;19;1897;-47
2023/04/17 06:35:15;;;;;;;;;;;;;;;21.44;67.34;100539.66;7392241;19;1953;-49
2023/04/17 06:37:43;;;;;;;;;;;;;;;21.39;67.87;100550.03;7394610;19;1155;-49
2023/04/17 06:40:13;;;;;;;;;;;;;;;21.31;68.18;100542.75;7395777;19;1372;-48
2023/04/17 06:42:42;;;;;;;;;;;;;;;21.31;68.18;100553.50;7394695;19;1371;-48
2023/04/17 06:45:11;;;;;;;;;;;;;;;21.31;68.07;100540.06;7398681;19;1163;-49
2023/04/17 06:47:41;;;;;;;;;;;;;;;21.09;67.94;100508.25;7395836;19;1957;-48
2023/04/17 06:50:10;;;;;;;;;;;;;;;21.33;67.79;100556.00;7397135;19;1544;-47
2023/04/17 06:52:41;;;;;;;;;;;;;;;21.35;68.08;100540.59;7393408;19;1866;-48
2023/04/17 06:55:10;;;;;;;;;;;;;;;20.90;68.00;100474.34;7395571;19;1553;-48
2023/04/17 06:57:38;;;;;;;;;;;;;;;21.42;68.10;100539.78;7394375;19;1348;-46
2023/04/17 07:00:07;;;;;;;;;;;;;;;21.49;68.32;100549.94;7398142;19;1490;-47
2023/04/17 07:02:35;;;;;;;;;;;;;;;21.50;68.12;100557.03;7397568;19;1609;-52
2023/04/17 07:05:07;;;;;;;;;;;;;;;21.47;68.21;100565.41;7392057;19;1297;-49
2023/04/17 07:07:35;;;;;;;;;;;;;;;21.42;68.33;100561.31;7397823;19;1149;-48
2023/04/17 07:10:07;;;;;;;;;;;;;;;21.37;68.20;100552.03;7395075;19;1499;-47
2023/04/17 07:12:35;;;;;;;;;;;;;;;21.39;68.39;100567.00;7394936;19;1860;-48
2023/04/17 07:15:03;;;;;;;;;;;;;;;21.33;68.56;100570.31;7396966;19;1193;-49
2023/04/17 07:17:32;;;;;;;;;;;;;;;21.36;68.47;100561.09;6876705;19;10000023;-49
2023/04/17 07:20:00;;;;;;;;;;;;;;;21.34;68.61;100569.31;7382834;19;1475;-49
2023/04/17 07:22:28;;;;;;;;;;;;;;;21.34;68.59;100577.38;7388981;19;1617;-49
2023/04/17 07:24:56;;;;;;;;;;;;;;;21.39;68.48;100577.78;7389457;19;1530;-49
2023/04/17 07:27:27;;;;;;;;;;;;;;;21.48;68.46;100577.84;7388433;19;1367;-50
2023/04/17 07:29:56;;;;;;;;;;;;;;;21.55;68.53;100587.00;7392063;19;1597;-51
2023/04/17 07:32:26;;;;;;;;;;;;;;;21.57;68.40;100579.63;7390979;19;1847;-50
2023/04/17 07:34:55;;;;;;;;;;;;;;;21.60;68.21;100571.22;7388303;19;1843;-48
2023/04/17 07:37:23;;;;;;;;;;;;;;;21.67;67.95;100576.84;7386653;19;1913;-50
2023/04/17 07:39:51;;;;;;;;;;;;;;;21.77;68.15;100564.13;7387945;19;1400;-48
2023/04/17 07:42:20;;;;;;;;;;;;;;;21.25;68.11;100493.09;7387241;19;1521;-48
2023/04/17 07:44:50;;;;;;;;;;;;;;;21.60;68.91;100579.28;7386775;19;1858;-48
2023/04/17 07:47:19;;;;;;;;;;;;;;;21.51;69.03;100567.63;7381477;19;1416;-48
2023/04/17 07:49:47;;;;;;;;;;;;;;;21.55;69.11;100573.56;7383155;19;1471;-49
2023/04/17 07:52:16;;;;;;;;;;;;;;;21.60;68.78;100585.50;7385296;19;1851;-48
2023/04/17 07:54:45;;;;;;;;;;;;;;;21.65;68.32;100576.97;7387619;19;1148;-49
2023/04/17 07:57:13;;;;;;;;;;;;;;;21.72;68.19;100588.78;7387932;19;1503;-48
2023/04/17 07:59:42;;;;;;;;;;;;;;;21.72;68.41;100594.16;7384761;19;1978;-49
2023/04/17 08:02:14;;;;;;;;;;;;;;;21.35;69.53;100571.00;7387449;19;1510;-49
2023/04/17 08:04:43;;;;;;;;;;;;;;;21.07;70.26;100583.72;7385136;19;1561;-47
2023/04/17 08:07:11;;;;;;;;;;;;;;;20.94;70.86;100597.50;7385493;19;1428;-48
2023/04/17 08:09:40;;;;;;;;;;;;;;;20.83;71.58;100578.91;7389047;19;1477;-48
2023/04/17 08:12:08;;;;;;;;;;;;;;;20.64;72.80;100583.44;7384478;19;1857;-49
2023/04/17 08:14:37;;;;;;;;;;;;;;;20.51;73.33;100587.44;7384712;19;1079;-50
2023/04/17 08:17:06;;;;;;;;;;;;;;;20.58;72.65;100610.88;7385488;19;1475;-48
2023/04/17 08:19:37;;;;;;;;;;;;;;;20.78;72.39;100583.91;7388346;19;1517;-48
2023/04/17 08:22:06;;;;;;;;;;;;;;;20.59;73.75;100584.88;7385755;19;1868;-51
2023/04/17 08:24:34;;;;;;;;;;;;;;;20.35;73.75;100602.38;7390408;19;1086;-52
2023/04/17 08:27:04;;;;;;;;;;;;;;;20.34;74.65;100597.16;7385769;19;1489;-51
2023/04/17 08:29:32;;;;;;;;;;;;;;;20.40;74.09;100588.50;7389119;19;1809;-51
2023/04/17 08:32:03;;;;;;;;;;;;;;;20.51;74.09;100593.63;7386802;19;1845;-52
2023/04/17 08:34:32;;;;;;;;;;;;;;;20.46;74.26;100590.56;7390815;19;1431;-52
2023/04/17 08:37:03;;;;;;;;;;;;;;;20.35;75.41;100585.38;7391681;19;1442;-51
2023/04/17 08:39:31;;;;;;;;;;;;;;;20.58;73.64;100583.16;7392400;19;1592;-51
2023/04/17 08:42:01;;;;;;;;;;;;;;;20.51;74.38;100601.69;7391988;19;1534;-51
2023/04/17 08:44:30;;;;;;;;;;;;;;;20.49;74.63;100592.09;7391697;19;1059;-50
2023/04/17 08:46:59;;;;;;;;;;;;;;;20.55;75.15;100603.13;7391028;19;1439;-51
2023/04/17 08:49:30;;;;;;;;;;;;;;;20.45;75.91;100600.47;7391962;19;1131;-52
2023/04/17 08:51:58;;;;;;;;;;;;;;;20.45;75.98;100599.59;7392961;19;1857;-51
2023/04/17 08:54:29;;;;;;;;;;;;;;;20.58;75.92;100592.06;7390162;19;1160;-51
2023/04/17 08:56:58;;;;;;;;;;;;;;;20.53;76.79;100591.69;7384236;19;1194;-51
2023/04/17 08:59:26;;;;;;;;;;;;;;;20.42;76.85;100598.06;7384622;19;1317;-52
2023/04/17 09:02:01;;;;;;;;;;;;;;;20.42;77.05;100610.66;7387978;19;1164;-52
2023/04/17 09:04:40;;;;;;;;;;;;;;;20.42;76.67;100589.19;7391265;19;1570;-52
2023/04/17 09:07:09;;;;;;;;;;;;;;;20.40;76.38;100596.53;7392436;19;1465;-51
2023/04/17 09:09:55;;;;;;;;;;;;;;;20.37;76.91;100583.41;7392614;19;1241;-51
2023/04/17 09:12:24;;;;;;;;;;;;;;;20.39;76.88;100595.72;7394656;19;1857;-51
2023/04/17 09:14:53;;;;;;;;;;;;;;;20.49;76.57;100600.16;7398075;19;1621;-51
2023/04/17 09:17:22;;;;;;;;;;;;;;;20.39;76.61;100595.72;7398581;19;1465;-50
2023/04/17 09:20:05;;;;;;;;;;;;;;;20.35;77.04;100593.44;7398775;19;1371;-51
2023/04/17 09:22:33;;;;;;;;;;;;;;;20.40;77.02;100580.44;7399963;19;1533;-51
2023/04/17 09:25:04;;;;;;;;;;;;;;;20.33;77.12;100585.53;7398609;19;1467;-52
2023/04/17 09:27:32;;;;;;;;;;;;;;;20.29;76.89;100577.94;7396825;19;1952;-51
2023/04/17 09:30:02;;;;;;;;;;;;;;;20.26;77.19;100574.53;7400729;19;1183;-52
2023/04/17 09:32:32;;;;;;;;;;;;;;;20.36;77.69;100570.97;7398888;19;1853;-49
2023/04/17 09:35:01;;;;;;;;;;;;;;;20.37;77.87;100575.34;7398613;19;1551;-51
2023/04/17 09:37:47;;;;;;;;;;;;;;;20.48;77.70;100574.31;7398419;19;1321;-51
2023/04/17 09:40:19;;;;;;;;;;;;;;;20.51;78.37;100569.47;7398071;19;1560;-50
2023/04/17 09:43:00;;;;;;;;;;;;;;;20.49;78.35;100547.28;7395887;19;1273;-50
2023/04/17 09:45:34;;;;;;;;;;;;;;;20.46;78.24;100569.91;7399904;19;1213;-51
2023/04/17 09:48:02;;;;;;;;;;;;;;;20.48;77.99;100561.72;7397316;19;1506;-51
2023/04/17 09:50:31;;;;;;;;;;;;;;;20.45;78.20;100548.56;7399883;19;1477;-53
2023/04/17 09:53:00;;;;;;;;;;;;;;;20.49;77.92;100555.34;7396676;19;1906;-51
2023/04/17 09:55:32;;;;;;;;;;;;;;;20.52;77.77;100554.22;7398639;19;1523;-52
2023/04/17 09:58:01;;;;;;;;;;;;;;;20.56;77.42;100553.75;7398228;19;1474;-50
2023/04/17 10:00:29;;;;;;;;;;;;;;;20.34;77.57;100551.50;7399181;19;1285;-52
2023/04/17 10:02:58;;;;;;;;;;;;;;;20.36;77.04;100546.81;7397536;19;1578;-51
2023/04/17 10:05:30;;;;;;;;;;;;;;;20.44;76.80;100563.03;7393218;19;1469;-51
2023/04/17 10:07:58;;;;;;;;;;;;;;;20.48;76.25;100556.34;7397767;19;1141;-52
2023/04/17 10:10:29;;;;;;;;;;;;;;;20.54;75.90;100558.44;7396441;19;1280;-52
2023/04/17 10:13:00;;;;;;;;;;;;;;;20.46;75.94;100542.22;7396511;19;1834;-52
2023/04/17 10:15:30;;;;;;;;;;;;;;;20.46;76.10;100567.25;7397505;19;1190;-53
2023/04/17 10:18:18;;;;;;;;;;;;;;;20.57;75.33;100566.19;7396936;19;1647;-53
2023/04/17 10:20:47;;;;;;;;;;;;;;;20.45;75.74;100567.38;7397761;19;1179;-52
2023/04/17 10:23:33;;;;;;;;;;;;;;;20.34;76.15;100567.59;7395143;19;1545;-51
2023/04/17 10:26:16;;;;;;;;;;;;;;;20.34;76.11;100567.59;7395619;19;1347;-52
2023/04/17 10:28:54;;;;;;;;;;;;;;;20.36;75.68;100566.44;7396367;19;1249;-52
2023/04/17 10:31:22;;;;;;;;;;;;;;;20.43;75.33;100564.00;7395657;19;1170;-52
2023/04/17 10:33:51;;;;;;;;;;;;;;;20.53;74.95;100556.75;7395433;19;1872;-52
2023/04/17 10:36:34;;;;;;;;;;;;;;;20.54;74.78;100565.66;7398304;19;1466;-50
2023/04/17 10:39:14;;;;;;;;;;;;;;;20.36;75.14;100557.56;7397330;19;1772;-51
2023/04/17 10:41:57;;;;;;;;;;;;;;;20.38;74.38;100569.00;7396798;19;1491;-51
2023/04/17 10:44:28;;;;;;;;;;;;;;;20.08;75.04;100570.97;7396266;19;1817;-52
2023/04/17 10:46:57;;;;;;;;;;;;;;;20.10;74.54;100571.66;7396021;19;1347;-51
2023/04/17 10:49:25;;;;;;;;;;;;;;;20.11;75.11;100580.56;7397455;19;1499;-52
2023/04/17 10:51:54;;;;;;;;;;;;;;;20.29;74.19;100573.41;7397441;19;1194;-52
2023/04/17 10:54:22;;;;;;;;;;;;;;;20.12;74.70;100575.03;6874788;19;9999644;-52
2023/04/17 10:56:57;;;;;;;;;;;;;;;20.14;74.69;100581.09;7391192;19;1103;-51
2023/04/17 10:59:28;;;;;;;;;;;;;;;20.10;74.90;100577.03;7391433;19;1120;-51
2023/04/17 11:02:03;;;;;;;;;;;;;;;20.06;74.41;100573.78;7391242;19;1018;-52
2023/04/17 11:04:32;;;;;;;;;;;;;;;20.04;74.46;100599.09;7388571;19;1458;-52
2023/04/17 11:07:02;;;;;;;;;;;;;;;20.36;72.88;100570.97;7390777;19;1564;-52
2023/04/17 11:09:30;;;;;;;;;;;;;;;20.42;72.60;100576.59;7389747;19;1408;-53
2023/04/17 11:12:00;;;;;;;;;;;;;;;20.34;72.97;100575.66;7390090;19;1509;-51
2023/04/17 11:14:29;;;;;;;;;;;;;;;20.13;73.66;100568.66;7388116;19;1861;-52
2023/04/17 11:17:00;;;;;;;;;;;;;;;20.19;73.72;100589.59;7387075;19;1093;-52
2023/04/17 11:19:28;;;;;;;;;;;;;;;20.05;74.32;100584.66;7394801;19;1111;-50
2023/04/17 11:22:00;;;;;;;;;;;;;;;20.09;73.92;100578.00;7392525;19;1582;-46
2023/04/17 11:24:29;;;;;;;;;;;;;;;20.19;73.36;100586.91;7395110;19;1042;-45
2023/04/17 11:26:58;;;;;;;;;;;;;;;20.21;74.10;100578.66;7394501;19;1886;-48
2023/04/17 11:29:26;;;;;;;;;;;;;;;20.12;73.63;100577.72;7396392;19;1482;-50
2023/04/17 11:31:56;;;;;;;;;;;;;;;19.99;74.27;100556.56;7395464;19;1644;-49
2023/04/17 11:34:27;;;;;;;;;;;;;;;19.97;74.42;100573.81;7390735;19;1861;-49
2023/04/17 11:36:56;;;;;;;;;;;;;;;19.92;74.26;100579.63;7395574;19;1174;-50
2023/04/17 11:39:25;;;;;;;;;;;;;;;19.89;74.56;100569.19;7395586;19;1244;-50
2023/04/17 11:41:53;;;;;;;;;;;;;;;19.92;74.42;100549.28;7394614;19;1446;-49
2023/04/17 11:44:22;;;;;;;;;;;;;;;20.03;74.09;100573.22;7395170;19;1578;-50
2023/04/17 11:46:51;;;;;;;;;;;;;;;19.98;74.25;100564.78;7394922;19;1422;-49
2023/04/17 11:49:25;;;;;;;;;;;;;;;19.95;74.32;100570.44;7394975;19;1498;-50
2023/04/17 11:51:56;;;;;;;;;;;;;;;19.85;74.57;100565.09;7395802;19;1455;-49
2023/04/17 11:54:27;;;;;;;;;;;;;;;19.86;74.36;100561.44;7394734;19;1912;-50
2023/04/17 11:57:02;;;;;;;;;;;;;;;19.86;74.21;100567.63;7391863;19;1393;-50
2023/04/17 11:59:34;;;;;;;;;;;;;;;19.81;74.33;100564.53;7393783;19;1543;-49
2023/04/17 12:02:03;;;;;;;;;;;;;;;20.05;73.26;100565.88;7396150;19;1349;-51
2023/04/17 12:04:32;;;;;;;;;;;;;;;20.22;72.60;100561.56;7393629;19;1265;-50
2023/04/17 12:07:03;;;;;;;;;;;;;;;19.92;73.27;100558.16;7394050;19;1489;-48
2023/04/17 12:09:32;;;;;;;;;;;;;;;19.84;74.20;100568.78;7395302;19;1325;-49
2023/04/17 12:12:01;;;;;;;;;;;;;;;19.81;73.81;100575.28;7394200;19;1210;-52
2023/04/17 12:14:30;;;;;;;;;;;;;;;19.86;73.83;100581.06;7391384;19;1858;-51
2023/04/17 12:16:58;;;;;;;;;;;;;;;19.82;74.34;100597.59;7393537;19;1402;-49
2023/04/17 12:19:28;;;;;;;;;;;;;;;19.79;74.10;100576.41;7392571;19;1203;-51
2023/04/17 12:21:57;;;;;;;;;;;;;;;19.61;73.26;100569.06;7394521;19;1180;-50
2023/04/17 12:24:28;;;;;;;;;;;;;;;19.62;74.37;100553.84;7390031;19;1253;-49
2023/04/17 12:26:57;;;;;;;;;;;;;;;19.73;73.59;100583.19;7390755;19;1205;-49
2023/04/17 12:29:25;;;;;;;;;;;;;;;19.67;73.69;100571.19;7394513;19;1545;-50
2023/04/17 12:31:54;;;;;;;;;;;;;;;19.68;73.82;100566.69;7395247;19;1470;-55
2023/04/17 12:34:22;;;;;;;;;;;;;;;19.80;73.67;100557.50;7393287;19;1857;-48
2023/04/17 12:36:50;;;;;;;;;;;;;;;20.23;72.50;100552.50;7393570;19;1354;-43
2023/04/17 12:39:18;;;;;;;;;;;;;;;20.82;70.67;100548.50;7393345;19;1328;-47
2023/04/17 12:41:49;;;;;;;;;;;;;;;21.17;69.66;100548.66;7394722;19;1521;-46
2023/04/17 12:44:18;;;;;;;;;;;;;;;21.31;69.49;100552.63;7392699;19;1604;-48
2023/04/17 12:46:46;;;;;;;;;;;;;;;21.51;68.80;100561.41;7397032;19;1549;-46
2023/04/17 12:49:14;;;;;;;;;;;;;;;21.56;68.58;100540.25;7399043;19;1094;-48
2023/04/17 12:51:43;;;;;;;;;;;;;;;21.40;68.76;100555.22;7399063;19;1486;-46
2023/04/17 12:54:11;;;;;;;;;;;;;;;20.92;70.07;100561.88;7399115;19;1845;-50
2023/04/17 12:56:39;;;;;;;;;;;;;;;20.57;71.17;100554.59;7401491;19;1108;-51